To NAV CANADA Home Page Login to a new session Search on AWWS site Feedback and Comments Disclaimer Vers la page française équivalente Tips FAQ What's new on the site To the Forecasts and Observations / NOTAM section To "File a Flight Plan" website Publications and other links Update of the User's profile FIC Telephone Numbers My Weather Data Folder Route Weather Data Regional Weather Data Local Weather Data To the Forecasts and Observations / NOTAM section
Request Generated 05/06/2016 at 20:40:27 UTC . Weather information available at that time is displayed.

METAR/TAF

NORTH BATTLEFORD/SK    (show WxCam)

METAR CYQW 062000Z AUTO 29011G18KT 280V350 9SM CLR 18/M03 A3018 RMK
SLP235 DENSITY ALT 2200FT=
METAR CYQW 061900Z AUTO 31014G21KT 9SM CLR 17/M02 A3019 RMK SLP238
DENSITY ALT 2100FT=
METAR CYQW 061800Z AUTO 32011G22KT 7SM CLR 16/M01 A3020 RMK SLP240
DENSITY ALT 2000FT=

TAF CYQW 061738Z 0618/0706 32012KT P6SM SKC TEMPO 0618/0703 5SM FU
BECMG 0703/0705 34005KT
RMK FCST BASED ON AUTO OBS. AUTO OBS NON-REPRESENTATIVE OF CRNT
WX. NXT FCST BY 070000Z=
Your time UTC time
Weather data provided by Environment Canada and NAV CANADA